Time;durP1;ratioP1;P1;durP2;ratioP2;P2;SDS_P1;SDS_P2;PMS_P1;PMS_P2;Temp;Humidity;BMP_temperature;BMP_pressure;BME280_temperature;BME280_humidity;BME280_pressure;Samples;Min_cycle;Max_cycle;Signal;HPM_P1;HPM_P2
2021/09/13 00:02:13;;;;;;;1.30;1.20;;;16.00;98.00;;;;;;5051898;28;20492;-71
2021/09/13 00:04:40;;;;;;;1.40;1.30;;;15.80;98.00;;;;;;5051989;28;20493;-71
2021/09/13 00:07:07;;;;;;;1.20;1.20;;;15.60;98.00;;;;;;5051729;28;20463;-72
2021/09/13 00:09:34;;;;;;;1.53;1.33;;;15.60;98.00;;;;;;5051696;28;20985;-71
2021/09/13 00:12:01;;;;;;;2.40;1.43;;;15.50;98.00;;;;;;5051463;28;20527;-71
2021/09/13 00:14:29;;;;;;;1.77;1.30;;;15.60;98.00;;;;;;5033605;28;20995;-72
2021/09/13 00:19:30;;;;;;;1.30;1.27;;;15.60;98.00;;;;;;5259864;22;20543;-72
2021/09/13 00:21:57;;;;;;;1.97;1.30;;;15.60;98.00;;;;;;5036850;28;20982;-71
2021/09/13 00:24:24;;;;;;;2.10;1.47;;;15.60;98.00;;;;;;5031018;28;20528;-71
2021/09/13 00:26:51;;;;;;;1.20;1.20;;;15.50;98.00;;;;;;5013481;28;20566;-71
2021/09/13 00:29:20;;;;;;;1.20;1.10;;;15.60;98.00;;;;;;5031067;28;20458;-71
2021/09/13 00:31:49;;;;;;;1.40;1.20;;;15.60;98.00;;;;;;5030848;28;20494;-71
2021/09/13 00:34:16;;;;;;;1.80;1.50;;;15.80;98.00;;;;;;5030896;28;20921;-72
2021/09/13 00:36:43;;;;;;;1.20;1.17;;;15.70;98.00;;;;;;5017176;28;20467;-71
2021/09/13 00:39:12;;;;;;;1.20;1.17;;;15.50;98.00;;;;;;5017323;28;20457;-71
2021/09/13 00:41:39;;;;;;;2.97;1.20;;;15.40;98.00;;;;;;5034686;28;20931;-71
2021/09/13 00:44:07;;;;;;;1.63;1.53;;;15.50;98.00;;;;;;5016964;28;20887;-70
2021/09/13 00:46:34;;;;;;;1.20;1.00;;;15.50;98.00;;;;;;5034711;28;20454;-70
2021/09/13 00:49:03;;;;;;;1.70;1.50;;;15.40;98.00;;;;;;5034630;28;20532;-71
2021/09/13 00:51:30;;;;;;;1.53;1.27;;;15.50;98.00;;;;;;5034990;28;20485;-70
2021/09/13 00:53:57;;;;;;;1.30;1.30;;;15.60;98.00;;;;;;5035005;28;20567;-72
2021/09/13 00:56:26;;;;;;;1.83;1.30;;;15.60;98.00;;;;;;5017526;28;20492;-71
2021/09/13 00:58:54;;;;;;;1.20;1.10;;;15.60;98.00;;;;;;5035057;28;20505;-71
2021/09/13 01:01:21;;;;;;;1.20;1.00;;;15.60;98.00;;;;;;5034926;28;20489;-71
2021/09/13 01:03:48;;;;;;;1.30;1.30;;;15.60;98.00;;;;;;5035014;28;20454;-71
2021/09/13 01:06:17;;;;;;;1.83;1.60;;;15.60;98.00;;;;;;5035020;28;20890;-71
2021/09/13 01:08:45;;;;;;;1.77;1.27;;;15.50;98.00;;;;;;5034836;28;20799;-71
2021/09/13 01:11:13;;;;;;;1.20;1.10;;;15.60;98.00;;;;;;5034740;28;20501;-71
2021/09/13 01:13:40;;;;;;;1.20;1.20;;;15.70;98.00;;;;;;5034767;28;20490;-71
2021/09/13 01:16:08;;;;;;;1.87;1.80;;;15.80;98.00;;;;;;5034590;28;20550;-71
2021/09/13 01:18:35;;;;;;;1.40;1.20;;;15.80;98.00;;;;;;5034836;28;20458;-71
2021/09/13 01:21:02;;;;;;;1.20;1.10;;;15.80;98.00;;;;;;5034501;28;20520;-71
2021/09/13 01:23:32;;;;;;;1.70;1.27;;;15.80;98.00;;;;;;5034630;28;20486;-71
2021/09/13 01:26:00;;;;;;;1.90;1.50;;;15.80;98.00;;;;;;5034439;28;21048;-72
2021/09/13 01:28:28;;;;;;;2.63;1.30;;;15.70;98.00;;;;;;5034409;28;20554;-71
2021/09/13 01:30:55;;;;;;;1.30;1.20;;;15.40;98.00;;;;;;5034366;28;20454;-71
2021/09/13 01:33:23;;;;;;;1.60;1.30;;;15.30;98.00;;;;;;5034568;28;20520;-70
2021/09/13 01:35:52;;;;;;;1.43;1.20;;;15.30;98.00;;;;;;5034236;28;20512;-72
2021/09/13 01:38:30;;;;;;;1.40;1.40;;;15.30;98.00;;;;;;5034164;28;20458;-71
2021/09/13 01:40:59;;;;;;;1.20;1.03;;;15.40;98.00;;;;;;5034313;28;20461;-71
2021/09/13 01:43:26;;;;;;;1.20;1.13;;;15.50;98.00;;;;;;5034531;28;20532;-71
2021/09/13 01:45:53;;;;;;;1.40;1.10;;;15.50;98.00;;;;;;5034115;28;20454;-71
2021/09/13 01:48:20;;;;;;;1.50;1.30;;;15.60;98.00;;;;;;5033856;28;20494;-70
2021/09/13 01:50:48;;;;;;;1.90;1.30;;;15.60;98.00;;;;;;5016689;28;20486;-71
2021/09/13 01:53:15;;;;;;;1.30;1.30;;;15.50;98.00;;;;;;5034041;28;20584;-71
2021/09/13 01:55:42;;;;;;;1.27;1.20;;;15.30;98.00;;;;;;5016345;28;21073;-71
2021/09/13 01:58:10;;;;;;;1.30;1.10;;;15.10;98.00;;;;;;5033986;28;20883;-72
2021/09/13 02:00:37;;;;;;;1.50;1.33;;;14.90;98.00;;;;;;5033571;28;20463;-70
2021/09/13 02:03:04;;;;;;;2.87;1.73;;;14.80;98.00;;;;;;5033689;28;20467;-72
2021/09/13 02:05:31;;;;;;;1.70;1.20;;;14.70;98.00;;;;;;5033761;28;20498;-71
2021/09/13 02:08:00;;;;;;;1.30;1.17;;;14.60;98.00;;;;;;5015935;28;21132;-71
2021/09/13 02:10:27;;;;;;;1.30;1.20;;;14.60;98.00;;;;;;5033653;28;20462;-70
2021/09/13 02:12:56;;;;;;;1.37;1.23;;;14.60;98.00;;;;;;4999643;28;21061;-71
2021/09/13 02:15:24;;;;;;;1.47;1.33;;;14.50;98.00;;;;;;5033638;28;20521;-72
2021/09/13 02:17:51;;;;;;;1.30;1.20;;;14.50;98.00;;;;;;5033646;28;20461;-71
2021/09/13 02:20:18;;;;;;;1.20;1.10;;;14.60;98.00;;;;;;5033272;28;20474;-72
2021/09/13 02:22:45;;;;;;;1.40;1.20;;;14.50;98.00;;;;;;5015984;28;20989;-70
2021/09/13 02:25:12;;;;;;;1.20;1.10;;;14.50;98.00;;;;;;5033554;28;20482;-71
2021/09/13 02:27:39;;;;;;;1.40;1.33;;;14.50;98.00;;;;;;5033381;28;20883;-71
2021/09/13 02:30:07;;;;;;;1.60;1.43;;;14.50;98.00;;;;;;5032857;28;21332;-70
2021/09/13 02:32:36;;;;;;;1.60;1.30;;;14.80;98.00;;;;;;5033496;28;20466;-72
2021/09/13 02:35:05;;;;;;;1.70;1.33;;;14.90;98.00;;;;;;5033027;28;20492;-71
2021/09/13 02:37:33;;;;;;;1.80;1.50;;;14.80;98.00;;;;;;5033095;28;20553;-71
2021/09/13 02:40:01;;;;;;;1.67;1.50;;;14.60;98.00;;;;;;5031227;28;20980;-72
2021/09/13 02:42:28;;;;;;;1.50;1.20;;;14.50;98.00;;;;;;5033248;28;20512;-70
2021/09/13 02:44:55;;;;;;;1.20;1.10;;;14.60;98.00;;;;;;5032976;28;20455;-72
2021/09/13 02:47:22;;;;;;;2.23;1.30;;;14.70;98.00;;;;;;5015553;28;20480;-71
2021/09/13 02:49:51;;;;;;;2.37;1.70;;;14.60;98.00;;;;;;5033061;28;20468;-70
2021/09/13 02:52:18;;;;;;;1.77;1.60;;;14.50;98.00;;;;;;5032956;28;21041;-70
2021/09/13 02:54:45;;;;;;;1.87;1.57;;;14.60;98.00;;;;;;5032863;28;20540;-70
2021/09/13 02:57:12;;;;;;;1.90;1.40;;;14.80;98.00;;;;;;5032931;28;20618;-70
2021/09/13 02:59:39;;;;;;;1.40;1.33;;;14.80;98.00;;;;;;5032937;28;20458;-71
2021/09/13 03:02:06;;;;;;;1.30;1.30;;;14.80;98.00;;;;;;5032803;28;20510;-71
2021/09/13 03:04:36;;;;;;;1.20;1.20;;;14.80;98.00;;;;;;5015496;28;20465;-70
2021/09/13 03:07:06;;;;;;;1.40;1.30;;;14.80;98.00;;;;;;5031039;28;20494;-71
2021/09/13 03:09:33;;;;;;;1.50;1.30;;;14.70;98.00;;;;;;5032844;28;20562;-71
2021/09/13 03:12:02;;;;;;;1.77;1.57;;;14.80;98.00;;;;;;5032896;28;20815;-71
2021/09/13 03:14:29;;;;;;;1.30;1.20;;;14.80;98.00;;;;;;5032404;28;20551;-71
2021/09/13 03:16:56;;;;;;;1.30;1.20;;;14.70;98.00;;;;;;5032167;28;21211;-71
2021/09/13 03:19:24;;;;;;;1.40;1.33;;;14.80;98.00;;;;;;5032272;28;20802;-71
2021/09/13 03:21:51;;;;;;;2.07;1.63;;;14.70;98.00;;;;;;5032353;28;20454;-70
2021/09/13 03:24:21;;;;;;;1.20;1.10;;;14.60;98.00;;;;;;5031682;28;20465;-72
2021/09/13 03:26:48;;;;;;;1.30;1.20;;;14.40;98.00;;;;;;5032117;28;21083;-70
2021/09/13 03:29:15;;;;;;;1.40;1.30;;;14.30;98.00;;;;;;5032120;28;20503;-71
2021/09/13 03:31:48;;;;;;;1.30;1.20;;;14.20;98.00;;;;;;5032054;28;20466;-70
2021/09/13 03:34:15;;;;;;;1.40;1.30;;;14.20;98.00;;;;;;5032019;28;20462;-71
2021/09/13 03:36:42;;;;;;;1.20;1.00;;;14.20;98.00;;;;;;5032214;28;21002;-70
2021/09/13 03:39:09;;;;;;;2.13;1.30;;;14.30;98.00;;;;;;5032284;28;20463;-72
2021/09/13 03:41:37;;;;;;;1.40;1.30;;;14.20;98.00;;;;;;5031994;28;20470;-70
2021/09/13 03:44:05;;;;;;;1.80;1.33;;;14.10;98.00;;;;;;5031962;28;20967;-70
2021/09/13 03:46:32;;;;;;;2.43;1.87;;;14.20;98.00;;;;;;5014321;28;20461;-70
2021/09/13 03:48:59;;;;;;;1.93;1.30;;;14.30;98.00;;;;;;5031794;28;20523;-71
2021/09/13 03:51:26;;;;;;;1.40;1.20;;;14.40;98.00;;;;;;5031879;28;20509;-70
2021/09/13 03:53:54;;;;;;;1.27;1.23;;;14.30;98.00;;;;;;5014565;28;20957;-70
2021/09/13 03:56:21;;;;;;;1.30;1.10;;;14.10;98.00;;;;;;5013854;28;20484;-71
2021/09/13 03:58:52;;;;;;;2.43;1.40;;;14.10;98.00;;;;;;5031836;28;20458;-71
2021/09/13 04:01:19;;;;;;;1.20;1.17;;;14.00;98.00;;;;;;5031524;28;20993;-71
2021/09/13 04:03:47;;;;;;;1.40;1.23;;;14.00;98.00;;;;;;5031870;28;20455;-71
2021/09/13 04:06:22;;;;;;;1.40;1.07;;;14.00;98.00;;;;;;5031657;28;20460;-70
2021/09/13 04:11:49;;;;;;;1.40;1.30;;;14.10;98.00;;;;;;4995739;28;20972;-71
2021/09/13 04:14:18;;;;;;;1.40;1.30;;;14.10;98.00;;;;;;5031622;28;20814;-71
2021/09/13 04:16:45;;;;;;;1.77;1.40;;;14.10;98.00;;;;;;5031705;28;20493;-72
2021/09/13 04:19:12;;;;;;;2.47;1.50;;;14.10;98.00;;;;;;5031623;28;20489;-71
2021/09/13 04:21:39;;;;;;;2.93;1.57;;;14.10;98.00;;;;;;5031751;28;20942;-71
2021/09/13 04:24:07;;;;;;;1.20;1.00;;;14.10;98.00;;;;;;5031664;28;20464;-72
2021/09/13 04:26:34;;;;;;;1.30;1.20;;;14.20;98.00;;;;;;5031812;28;20515;-71
2021/09/13 04:29:01;;;;;;;1.43;1.30;;;14.30;98.00;;;;;;5031640;28;20494;-72
2021/09/13 04:31:29;;;;;;;1.20;1.00;;;14.50;98.00;;;;;;5031471;28;20502;-71
2021/09/13 04:33:56;;;;;;;1.37;1.10;;;14.60;98.00;;;;;;5031551;28;20546;-70
2021/09/13 04:36:23;;;;;;;1.50;1.30;;;14.70;98.00;;;;;;5031275;28;20485;-70
2021/09/13 04:38:50;;;;;;;1.63;1.57;;;14.70;98.00;;;;;;5031337;28;20459;-71
2021/09/13 04:41:17;;;;;;;1.60;1.30;;;14.60;98.00;;;;;;5031345;28;20515;-71
2021/09/13 04:43:45;;;;;;;1.50;1.10;;;14.80;98.00;;;;;;5031417;28;20603;-72
2021/09/13 04:46:12;;;;;;;1.40;1.27;;;14.80;98.00;;;;;;5030968;28;20462;-70
2021/09/13 04:48:40;;;;;;;1.60;1.30;;;14.80;98.00;;;;;;5031299;28;20504;-70
2021/09/13 04:51:07;;;;;;;1.53;1.33;;;14.70;98.00;;;;;;5031168;28;20518;-70
2021/09/13 04:53:34;;;;;;;1.20;1.10;;;14.70;98.00;;;;;;5031046;28;21010;-72
2021/09/13 04:56:01;;;;;;;1.30;1.20;;;14.60;98.00;;;;;;5030766;28;20518;-70
2021/09/13 04:58:28;;;;;;;1.20;1.20;;;14.60;98.00;;;;;;5030670;28;20451;-70
2021/09/13 05:00:55;;;;;;;1.30;1.20;;;14.50;98.00;;;;;;5030639;28;20534;-70
2021/09/13 05:03:22;;;;;;;1.50;1.10;;;14.40;98.00;;;;;;5030953;28;20529;-70
2021/09/13 05:05:51;;;;;;;1.50;1.30;;;14.30;98.00;;;;;;5013089;28;20489;-71
2021/09/13 05:08:18;;;;;;;1.60;1.20;;;14.30;98.00;;;;;;5030976;28;20464;-71
2021/09/13 05:10:45;;;;;;;1.40;1.40;;;14.30;98.00;;;;;;5013571;28;20484;-71
2021/09/13 05:13:12;;;;;;;1.20;1.13;;;14.30;98.00;;;;;;5030877;28;20495;-70
2021/09/13 05:15:39;;;;;;;1.93;1.53;;;14.30;98.00;;;;;;5030848;28;20587;-71
2021/09/13 05:18:06;;;;;;;1.20;1.17;;;14.30;98.00;;;;;;5013473;28;20464;-71
2021/09/13 05:20:34;;;;;;;1.80;1.60;;;14.40;98.00;;;;;;5013392;28;21044;-72
2021/09/13 05:23:03;;;;;;;1.20;1.20;;;14.40;98.00;;;;;;5016363;28;20523;-70
2021/09/13 05:25:30;;;;;;;1.47;1.30;;;14.30;98.00;;;;;;5034566;28;20578;-70
2021/09/13 05:27:57;;;;;;;1.60;1.33;;;14.20;98.00;;;;;;5016946;28;20511;-72
2021/09/13 05:30:25;;;;;;;2.77;1.70;;;14.20;98.00;;;;;;5017048;28;20526;-70
2021/09/13 05:32:52;;;;;;;1.60;1.40;;;14.20;98.00;;;;;;5034529;28;20502;-70
2021/09/13 05:35:23;;;;;;;1.57;1.20;;;14.10;98.00;;;;;;5034476;28;20542;-72
2021/09/13 05:37:50;;;;;;;1.30;1.20;;;14.00;98.00;;;;;;5034364;28;20474;-71
2021/09/13 05:40:19;;;;;;;1.30;1.20;;;14.10;98.00;;;;;;5034391;28;20925;-71
2021/09/13 05:42:46;;;;;;;2.17;1.33;;;14.10;98.00;;;;;;5034491;28;20465;-70
2021/09/13 05:45:13;;;;;;;1.30;1.10;;;14.10;98.00;;;;;;5034419;28;20458;-70
2021/09/13 05:47:40;;;;;;;1.20;1.10;;;14.20;98.00;;;;;;5034559;28;20916;-70
2021/09/13 05:50:07;;;;;;;1.80;1.40;;;14.30;98.00;;;;;;5034368;28;20449;-70
2021/09/13 05:52:35;;;;;;;1.50;1.30;;;14.20;98.00;;;;;;5034161;28;20532;-70
2021/09/13 05:55:02;;;;;;;1.50;1.30;;;14.10;98.00;;;;;;5034185;28;20469;-70
2021/09/13 05:57:30;;;;;;;1.40;1.30;;;14.10;98.00;;;;;;5033825;28;20464;-73
2021/09/13 05:59:57;;;;;;;1.40;1.40;;;14.10;98.00;;;;;;5034055;28;20949;-71
2021/09/13 06:02:26;;;;;;;1.40;1.20;;;14.20;98.00;;;;;;5034095;28;20507;-71
2021/09/13 06:04:54;;;;;;;1.37;1.37;;;14.20;98.00;;;;;;5016438;28;20865;-71
2021/09/13 06:07:22;;;;;;;1.30;1.30;;;14.20;98.00;;;;;;5033655;28;20545;-71
2021/09/13 06:09:49;;;;;;;1.30;1.30;;;14.20;98.00;;;;;;5033485;28;20943;-71
2021/09/13 06:12:17;;;;;;;1.20;1.20;;;14.20;98.00;;;;;;5033364;28;20484;-72
2021/09/13 06:14:45;;;;;;;2.00;1.43;;;14.30;98.00;;;;;;5033409;28;20546;-71
2021/09/13 06:17:13;;;;;;;2.33;1.20;;;14.60;98.00;;;;;;5033356;28;20548;-70
2021/09/13 06:19:40;;;;;;;1.40;1.30;;;14.80;98.00;;;;;;5033164;28;20539;-72
2021/09/13 06:22:08;;;;;;;1.77;1.30;;;14.90;98.00;;;;;;5033199;28;20461;-71
2021/09/13 06:24:39;;;;;;;1.40;1.10;;;14.90;98.00;;;;;;5033319;28;20974;-72
2021/09/13 06:27:06;;;;;;;1.80;1.30;;;14.90;98.00;;;;;;5033181;28;20532;-72
2021/09/13 06:29:33;;;;;;;1.97;1.60;;;15.00;98.00;;;;;;5033349;28;20874;-73
2021/09/13 06:32:02;;;;;;;1.77;1.30;;;15.10;98.00;;;;;;5032618;28;20470;-69
2021/09/13 06:34:30;;;;;;;1.83;1.47;;;15.20;98.00;;;;;;5033021;28;20513;-71
2021/09/13 06:36:58;;;;;;;1.30;1.30;;;15.20;98.00;;;;;;5032849;28;20522;-71
2021/09/13 06:39:25;;;;;;;2.00;1.93;;;15.20;98.00;;;;;;5032969;28;20980;-71
2021/09/13 06:41:52;;;;;;;1.30;1.17;;;15.40;98.00;;;;;;5033113;28;21009;-70
2021/09/13 06:44:23;;;;;;;1.20;1.10;;;15.50;98.00;;;;;;5033102;28;20464;-71
2021/09/13 06:47:00;;;;;;;2.77;1.50;;;15.40;98.00;;;;;;5016029;28;20466;-71
2021/09/13 06:49:30;;;;;;;1.90;1.57;;;15.50;98.00;;;;;;5032962;28;20944;-72
2021/09/13 06:51:57;;;;;;;1.40;1.30;;;15.50;98.00;;;;;;5032931;28;20924;-71
2021/09/13 06:54:26;;;;;;;1.63;1.53;;;15.30;98.00;;;;;;5032321;28;20463;-70
2021/09/13 06:56:53;;;;;;;1.50;1.40;;;15.40;98.00;;;;;;5032652;28;20486;-72
2021/09/13 06:59:20;;;;;;;1.50;1.23;;;15.40;98.00;;;;;;5032783;28;21061;-72
2021/09/13 07:01:49;;;;;;;1.30;1.20;;;15.40;98.00;;;;;;5032810;28;20462;-71
2021/09/13 07:04:16;;;;;;;2.60;2.40;;;15.40;98.00;;;;;;5032324;28;20484;-71
2021/09/13 07:06:52;;;;;;;2.23;1.60;;;15.50;98.00;;;;;;5015087;28;20493;-72
2021/09/13 07:09:19;;;;;;;1.50;1.30;;;15.60;98.00;;;;;;5016015;28;20469;-72
2021/09/13 07:11:46;;;;;;;1.83;1.50;;;15.60;98.00;;;;;;5032934;28;20596;-71
2021/09/13 07:14:13;;;;;;;1.90;1.40;;;15.60;98.00;;;;;;5032551;28;21099;-71
2021/09/13 07:16:40;;;;;;;1.70;1.57;;;15.90;98.00;;;;;;5032640;28;21027;-71
2021/09/13 07:19:07;;;;;;;1.30;1.17;;;16.00;98.00;;;;;;5032033;28;21118;-71
2021/09/13 07:21:34;;;;;;;1.53;1.50;;;16.00;98.00;;;;;;5029054;28;20540;-70
2021/09/13 07:24:02;;;;;;;1.30;1.20;;;16.00;98.00;;;;;;5029569;28;20512;-70
2021/09/13 07:26:30;;;;;;;1.37;1.33;;;16.10;98.00;;;;;;5032376;28;20489;-72
2021/09/13 07:28:57;;;;;;;1.93;1.33;;;16.20;98.00;;;;;;5029911;28;21172;-72
2021/09/13 07:31:24;;;;;;;1.70;1.47;;;16.40;98.00;;;;;;5029513;28;20952;-70
2021/09/13 07:33:51;;;;;;;1.33;1.27;;;16.60;98.00;;;;;;5029129;28;20491;-70
2021/09/13 07:36:18;;;;;;;1.67;1.57;;;17.00;98.00;;;;;;5029261;28;20548;-70
2021/09/13 07:38:44;;;;;;;2.23;1.43;;;17.00;98.00;;;;;;5029031;28;20944;-69
2021/09/13 07:41:13;;;;;;;3.00;1.40;;;17.20;98.00;;;;;;5028797;28;20881;-71
2021/09/13 07:43:40;;;;;;;1.47;1.40;;;17.30;98.00;;;;;;5029057;28;20447;-70
2021/09/13 07:46:07;;;;;;;1.30;1.30;;;17.30;98.00;;;;;;5010872;28;21030;-71
2021/09/13 07:48:34;;;;;;;1.40;1.27;;;17.50;98.00;;;;;;5029131;28;20878;-70
2021/09/13 07:51:01;;;;;;;1.30;1.20;;;17.80;98.00;;;;;;5027178;28;20830;-71
2021/09/13 07:53:28;;;;;;;1.60;1.40;;;17.90;98.00;;;;;;5029102;28;20821;-70
2021/09/13 07:55:55;;;;;;;1.50;1.40;;;18.10;98.00;;;;;;5029140;28;20961;-71
2021/09/13 07:58:23;;;;;;;1.73;1.60;;;18.20;98.00;;;;;;5029099;28;20483;-70
2021/09/13 08:00:50;;;;;;;1.40;1.20;;;18.40;98.00;;;;;;5029092;28;20505;-70
2021/09/13 08:03:17;;;;;;;2.13;1.40;;;18.60;98.00;;;;;;5029134;28;20528;-69
2021/09/13 08:05:45;;;;;;;2.13;1.80;;;18.90;98.00;;;;;;5029085;28;20540;-69
2021/09/13 08:08:13;;;;;;;1.93;1.60;;;19.10;98.00;;;;;;5028502;28;20455;-69
2021/09/13 08:10:41;;;;;;;3.67;1.47;;;19.10;98.00;;;;;;5028811;28;20454;-69
2021/09/13 08:13:09;;;;;;;3.03;1.50;;;19.20;98.00;;;;;;5028964;28;20458;-70
2021/09/13 08:15:38;;;;;;;1.40;1.30;;;19.30;98.00;;;;;;5028854;28;20854;-70
2021/09/13 08:18:06;;;;;;;1.37;1.33;;;19.30;98.00;;;;;;5029036;28;20454;-71
2021/09/13 08:20:33;;;;;;;1.40;1.40;;;19.50;98.00;;;;;;5028741;28;20486;-71
2021/09/13 08:23:03;;;;;;;1.20;1.10;;;19.70;98.00;;;;;;5028257;28;20460;-71
2021/09/13 08:25:30;;;;;;;1.70;1.40;;;20.00;98.00;;;;;;5028781;28;20864;-70
2021/09/13 08:27:57;;;;;;;1.40;1.20;;;20.10;98.00;;;;;;5028856;28;20486;-70
2021/09/13 08:30:26;;;;;;;1.70;1.50;;;19.90;98.00;;;;;;5028771;28;20462;-70
2021/09/13 08:32:55;;;;;;;1.50;1.40;;;19.80;98.00;;;;;;5010964;28;20466;-71
2021/09/13 08:35:22;;;;;;;1.40;1.30;;;19.70;98.00;;;;;;5028824;28;20968;-70
2021/09/13 08:37:49;;;;;;;2.00;1.70;;;19.60;98.00;;;;;;5028264;28;20491;-70
2021/09/13 08:40:17;;;;;;;1.43;1.30;;;19.50;98.00;;;;;;5028455;28;20740;-68
2021/09/13 08:42:46;;;;;;;1.53;1.50;;;19.60;98.00;;;;;;5028182;28;20891;-71
2021/09/13 08:45:18;;;;;;;1.60;1.50;;;19.60;98.00;;;;;;5032363;28;20463;-69
2021/09/13 08:47:59;;;;;;;4.33;1.50;;;19.70;98.00;;;;;;5028444;28;20889;-69
2021/09/13 08:50:36;;;;;;;1.60;1.40;;;20.00;98.00;;;;;;5026191;28;20459;-69
2021/09/13 08:53:04;;;;;;;1.47;1.37;;;20.10;98.00;;;;;;5028408;28;20996;-69
2021/09/13 08:55:31;;;;;;;1.30;1.27;;;20.30;98.00;;;;;;5028937;28;20546;-69
2021/09/13 08:57:59;;;;;;;1.37;1.30;;;20.50;98.00;;;;;;5032233;28;20905;-71
2021/09/13 09:00:26;;;;;;;1.40;1.37;;;20.80;98.00;;;;;;5032224;28;20462;-70
2021/09/13 09:02:55;;;;;;;2.27;1.77;;;21.00;98.00;;;;;;5032253;28;20454;-70
2021/09/13 09:05:22;;;;;;;1.70;1.63;;;21.10;98.00;;;;;;5032362;28;20465;-70
2021/09/13 09:07:53;;;;;;;1.30;1.30;;;21.30;98.00;;;;;;5032034;28;20458;-70
2021/09/13 09:10:25;;;;;;;1.53;1.30;;;21.40;98.00;;;;;;5032076;28;20461;-70
2021/09/13 09:13:01;;;;;;;2.03;1.40;;;21.50;98.00;;;;;;5031578;28;20457;-70
2021/09/13 09:15:28;;;;;;;1.83;1.67;;;21.50;98.00;;;;;;5031765;28;20462;-70
2021/09/13 09:17:57;;;;;;;2.20;1.70;;;21.70;98.00;;;;;;5031856;28;20526;-71
2021/09/13 09:20:24;;;;;;;1.70;1.70;;;21.90;98.00;;;;;;5031617;28;20559;-71
2021/09/13 09:23:03;;;;;;;1.80;1.50;;;22.00;98.00;;;;;;5030458;28;20490;-72
2021/09/13 09:25:33;;;;;;;1.93;1.63;;;22.10;98.00;;;;;;5034596;28;20458;-72
2021/09/13 09:28:02;;;;;;;1.63;1.20;;;22.20;98.00;;;;;;5034535;28;20478;-71
2021/09/13 09:30:35;;;;;;;1.87;1.60;;;22.30;98.00;;;;;;5034415;28;20466;-73
2021/09/13 09:33:06;;;;;;;3.27;2.10;;;22.40;98.00;;;;;;5034256;28;20513;-71
2021/09/13 09:35:44;;;;;;;1.60;1.47;;;22.60;98.00;;;;;;5016532;28;20458;-72
2021/09/13 09:38:31;;;;;;;2.20;1.80;;;22.80;98.00;;;;;;5034193;28;20489;-71
2021/09/13 09:41:03;;;;;;;1.70;1.57;;;23.00;98.00;;;;;;5034239;28;20463;-72
2021/09/13 09:43:31;;;;;;;2.40;1.83;;;23.20;98.00;;;;;;5034336;28;20469;-71
2021/09/13 09:45:59;;;;;;;2.37;2.20;;;23.40;98.00;;;;;;5034060;28;20469;-72
2021/09/13 09:48:32;;;;;;;2.17;1.60;;;23.60;98.00;;;;;;5034308;28;20799;-72
2021/09/13 09:50:59;;;;;;;1.93;1.50;;;23.80;98.00;;;;;;5016956;28;20454;-72
2021/09/13 09:53:30;;;;;;;2.40;2.00;;;23.90;98.00;;;;;;5034096;28;20454;-72
2021/09/13 09:56:13;;;;;;;1.47;1.43;;;24.10;98.00;;;;;;5034095;28;20952;-71
2021/09/13 09:59:00;;;;;;;2.40;1.80;;;24.20;98.00;;;;;;5033720;28;20813;-71
2021/09/13 10:01:39;;;;;;;1.40;1.30;;;24.40;98.00;;;;;;5033686;28;20462;-72
2021/09/13 10:04:19;;;;;;;1.80;1.70;;;24.50;98.00;;;;;;5033905;28;20463;-72
2021/09/13 10:06:49;;;;;;;1.70;1.40;;;24.60;98.00;;;;;;5033339;28;20455;-72
2021/09/13 10:09:19;;;;;;;1.73;1.60;;;24.70;98.00;;;;;;5015905;28;20865;-72
2021/09/13 10:11:47;;;;;;;2.33;1.60;;;24.90;98.00;;;;;;5033563;28;20504;-72
2021/09/13 10:14:16;;;;;;;1.60;1.50;;;25.10;97.90;;;;;;5033567;28;20458;-71
2021/09/13 10:16:45;;;;;;;4.20;2.10;;;25.20;97.40;;;;;;5033344;28;20487;-72
2021/09/13 10:19:13;;;;;;;3.30;2.03;;;25.20;97.20;;;;;;5015807;28;20478;-72
2021/09/13 10:21:42;;;;;;;2.80;1.70;;;24.80;96.80;;;;;;5033565;28;20516;-72
2021/09/13 10:24:14;;;;;;;2.73;2.17;;;24.60;98.00;;;;;;5033465;28;20953;-72
2021/09/13 10:26:46;;;;;;;3.37;1.83;;;24.90;98.00;;;;;;5033284;28;20956;-73
2021/09/13 10:29:24;;;;;;;2.40;1.70;;;24.80;98.00;;;;;;5015684;28;20521;-74
2021/09/13 10:32:00;;;;;;;2.93;1.83;;;24.80;98.00;;;;;;5033320;28;20928;-73
2021/09/13 10:34:30;;;;;;;1.90;1.80;;;25.00;98.00;;;;;;5033260;28;20462;-71
2021/09/13 10:37:02;;;;;;;2.23;1.53;;;25.20;98.00;;;;;;5033109;28;20483;-72
2021/09/13 10:39:49;;;;;;;1.87;1.70;;;25.00;96.30;;;;;;5033188;28;20451;-72
2021/09/13 10:42:36;;;;;;;2.47;1.63;;;25.20;95.60;;;;;;5033151;28;20462;-72
2021/09/13 10:45:25;;;;;;;2.57;1.93;;;25.50;95.10;;;;;;5015374;28;20462;-72
2021/09/13 10:48:07;;;;;;;2.03;1.60;;;25.60;95.80;;;;;;5032926;28;20451;-72
2021/09/13 10:50:37;;;;;;;4.03;2.27;;;25.70;95.80;;;;;;5033028;28;21099;-72
2021/09/13 10:53:27;;;;;;;2.10;1.93;;;25.50;96.20;;;;;;5032978;28;20469;-73
2021/09/13 10:55:56;;;;;;;2.37;1.90;;;25.10;96.30;;;;;;5032930;28;20458;-72
2021/09/13 10:58:43;;;;;;;2.47;2.13;;;24.80;96.70;;;;;;5015565;28;20561;-72
2021/09/13 11:01:20;;;;;;;2.10;1.70;;;24.60;98.00;;;;;;5032647;28;20466;-72
2021/09/13 11:03:55;;;;;;;3.33;2.10;;;24.60;98.00;;;;;;5032613;28;20486;-72
2021/09/13 11:06:38;;;;;;;2.53;1.77;;;24.80;96.80;;;;;;5032686;28;20855;-74
2021/09/13 11:09:10;;;;;;;2.43;2.10;;;24.80;98.00;;;;;;5032912;28;20457;-72
2021/09/13 11:11:41;;;;;;;2.33;1.70;;;25.10;97.90;;;;;;5033125;28;20486;-73
2021/09/13 11:14:14;;;;;;;4.73;2.13;;;25.30;95.70;;;;;;5033011;28;20482;-72
2021/09/13 11:16:43;;;;;;;2.17;1.97;;;25.70;96.40;;;;;;5032598;28;20459;-72
2021/09/13 11:19:15;;;;;;;1.70;1.50;;;26.30;94.20;;;;;;5013723;28;20458;-72
2021/09/13 11:21:44;;;;;;;5.20;2.10;;;26.60;91.80;;;;;;5032224;28;20483;-72
2021/09/13 11:24:14;;;;;;;2.27;2.00;;;26.90;90.40;;;;;;5032312;28;20454;-73
2021/09/13 11:26:43;;;;;;;2.33;1.60;;;27.40;92.30;;;;;;5032154;28;20516;-73
2021/09/13 11:29:13;;;;;;;2.60;1.90;;;27.70;89.10;;;;;;5032545;28;20486;-72
2021/09/13 11:31:42;;;;;;;5.77;2.17;;;28.10;89.10;;;;;;5032435;28;20874;-72
2021/09/13 11:34:32;;;;;;;2.40;1.73;;;28.00;87.60;;;;;;5014928;28;20465;-72
2021/09/13 11:37:06;;;;;;;1.60;1.60;;;27.90;90.50;;;;;;5032030;28;20505;-72
2021/09/13 11:39:35;;;;;;;4.17;2.20;;;28.00;89.30;;;;;;5014513;28;20521;-74
2021/09/13 11:42:05;;;;;;;2.70;1.90;;;28.00;88.80;;;;;;5032172;28;20450;-72
2021/09/13 11:44:39;;;;;;;3.43;2.40;;;28.00;87.90;;;;;;5032169;28;20459;-72
2021/09/13 11:47:07;;;;;;;3.27;2.00;;;28.20;87.40;;;;;;5031871;28;20493;-73
2021/09/13 11:49:36;;;;;;;2.60;1.90;;;28.30;87.30;;;;;;5013836;28;20459;-72
2021/09/13 11:52:10;;;;;;;2.10;1.67;;;28.60;86.90;;;;;;5031091;28;20537;-72
2021/09/13 11:54:48;;;;;;;2.20;1.80;;;28.70;85.60;;;;;;5013915;28;20458;-74
2021/09/13 11:57:29;;;;;;;1.93;1.83;;;28.60;85.70;;;;;;5031100;28;20477;-73
2021/09/13 12:00:00;;;;;;;2.47;2.07;;;28.30;85.80;;;;;;5031842;28;20977;-72
2021/09/13 12:02:29;;;;;;;3.17;2.20;;;28.20;87.00;;;;;;5031726;28;20486;-72
2021/09/13 12:04:57;;;;;;;2.37;1.73;;;28.30;86.90;;;;;;5014112;28;20501;-73
2021/09/13 12:07:25;;;;;;;2.80;1.83;;;28.30;87.70;;;;;;5031619;28;20454;-73
2021/09/13 12:09:53;;;;;;;2.77;2.30;;;28.40;84.70;;;;;;5031722;28;20549;-73
2021/09/13 12:12:23;;;;;;;2.30;1.80;;;28.40;86.30;;;;;;5014305;28;21446;-73
2021/09/13 12:14:54;;;;;;;1.93;1.73;;;28.40;87.60;;;;;;5031775;28;20462;-73
2021/09/13 12:17:24;;;;;;;2.20;1.70;;;28.30;87.80;;;;;;5031507;28;20541;-73
2021/09/13 12:20:11;;;;;;;2.20;1.63;;;28.20;87.50;;;;;;5031642;28;20553;-72
2021/09/13 12:22:39;;;;;;;2.40;2.10;;;28.00;86.00;;;;;;5031648;28;20486;-73
2021/09/13 12:25:12;;;;;;;2.30;2.10;;;28.00;87.80;;;;;;5031748;28;20462;-72
2021/09/13 12:27:44;;;;;;;2.80;2.20;;;28.10;86.30;;;;;;5031670;28;20913;-73
2021/09/13 12:30:18;;;;;;;2.80;1.80;;;28.20;85.80;;;;;;5031656;28;20519;-73
2021/09/13 12:32:54;;;;;;;2.50;1.97;;;28.20;87.10;;;;;;5035792;28;20498;-73
2021/09/13 12:35:39;;;;;;;3.27;2.03;;;28.30;87.10;;;;;;5035878;28;20461;-72
2021/09/13 12:38:09;;;;;;;1.90;1.80;;;28.40;87.60;;;;;;5034001;28;20532;-73
2021/09/13 12:40:55;;;;;;;2.60;2.20;;;28.40;86.80;;;;;;5035449;28;20508;-73
2021/09/13 12:43:25;;;;;;;2.30;1.83;;;28.40;86.00;;;;;;5033871;28;20458;-73
2021/09/13 12:46:05;;;;;;;3.37;1.90;;;28.50;84.40;;;;;;5035387;28;20465;-73
2021/09/13 12:48:37;;;;;;;2.40;2.03;;;28.50;86.30;;;;;;5035217;28;20460;-72
2021/09/13 12:51:05;;;;;;;3.60;2.27;;;28.60;84.40;;;;;;5034967;28;20854;-73
2021/09/13 12:53:32;;;;;;;2.07;1.70;;;28.70;83.40;;;;;;5035214;28;20488;-73
2021/09/13 12:56:02;;;;;;;2.93;2.10;;;28.80;84.30;;;;;;5035093;28;20519;-73
2021/09/13 12:58:31;;;;;;;3.00;1.70;;;28.90;82.20;;;;;;5017849;28;20490;-72
2021/09/13 13:01:02;;;;;;;2.00;1.60;;;29.00;84.50;;;;;;5017534;28;20478;-72
2021/09/13 13:03:29;;;;;;;2.07;1.60;;;29.20;82.80;;;;;;5017658;28;20461;-75
2021/09/13 13:05:59;;;;;;;2.57;1.90;;;29.10;84.90;;;;;;5034997;28;20494;-72